createdAt,value
2022-07-25T00:00:49.015Z,1014.98
2022-07-25T00:01:49.229Z,1015.00
2022-07-25T00:02:49.372Z,1014.96
2022-07-25T00:03:49.593Z,1014.99
2022-07-25T00:04:49.773Z,1014.93
2022-07-25T00:05:49.900Z,1014.91
2022-07-25T00:06:50.089Z,1014.88
2022-07-25T00:07:50.295Z,1014.88
2022-07-25T00:08:50.443Z,1014.84
2022-07-25T00:09:50.641Z,1014.84
2022-07-25T00:10:50.810Z,1014.81
2022-07-25T00:11:50.973Z,1014.82
2022-07-25T00:12:51.139Z,1014.79
2022-07-25T00:13:51.299Z,1014.83
2022-07-25T00:14:51.489Z,1014.78
2022-07-25T00:15:51.708Z,1014.78
2022-07-25T00:16:51.807Z,1014.72
2022-07-25T00:17:51.989Z,1014.77
2022-07-25T00:18:52.148Z,1014.72
2022-07-25T00:19:52.341Z,1014.74
2022-07-25T00:20:52.494Z,1014.70
2022-07-25T00:21:52.694Z,1014.69
2022-07-25T00:22:52.877Z,1014.65
2022-07-25T00:23:53.050Z,1014.65
2022-07-25T00:24:53.205Z,1014.63
2022-07-25T00:25:53.354Z,1014.65
2022-07-25T00:26:53.547Z,1014.60
2022-07-25T00:27:53.757Z,1014.62
2022-07-25T00:28:53.937Z,1014.61
2022-07-25T00:29:54.094Z,1014.64
2022-07-25T00:30:54.375Z,1014.60
2022-07-25T00:31:54.464Z,1014.63
2022-07-25T00:32:54.623Z,1014.62
2022-07-25T00:33:54.810Z,1014.61
2022-07-25T00:34:54.987Z,1014.59
2022-07-25T00:35:55.142Z,1014.57
2022-07-25T00:36:55.352Z,1014.58
2022-07-25T00:37:55.518Z,1014.61
2022-07-25T00:38:55.667Z,1014.58
2022-07-25T00:39:55.830Z,1014.57
2022-07-25T00:40:55.991Z,1014.56
2022-07-25T00:41:56.139Z,1014.56
2022-07-25T00:42:56.357Z,1014.52
2022-07-25T00:43:56.503Z,1014.50
2022-07-25T00:44:56.699Z,1014.49
2022-07-25T00:45:56.966Z,1014.49
2022-07-25T00:46:57.078Z,1014.48
2022-07-25T00:47:57.239Z,1014.49
2022-07-25T00:48:57.425Z,1014.44
2022-07-25T00:49:57.583Z,1014.46
2022-07-25T00:50:57.734Z,1014.45
2022-07-25T00:51:57.888Z,1014.41
2022-07-25T00:52:58.121Z,1014.44
2022-07-25T00:53:58.258Z,1014.41
2022-07-25T00:54:58.421Z,1014.44
2022-07-25T00:55:58.597Z,1014.41
2022-07-25T00:56:58.796Z,1014.35
2022-07-25T00:57:58.981Z,1014.38
2022-07-25T00:58:59.140Z,1014.35
2022-07-25T00:59:59.309Z,1014.35
2022-07-25T01:00:59.485Z,1014.33
2022-07-25T01:01:59.703Z,1014.35
2022-07-25T01:02:59.851Z,1014.35
2022-07-25T01:03:59.967Z,1014.29
2022-07-25T01:05:00.132Z,1014.34
2022-07-25T01:06:00.311Z,1014.31
2022-07-25T01:07:00.511Z,1014.32
2022-07-25T01:08:00.667Z,1014.29
2022-07-25T01:09:00.820Z,1014.31
2022-07-25T01:10:01.013Z,1014.26
2022-07-25T01:11:05.011Z,1014.26
2022-07-25T01:12:01.383Z,1014.27
2022-07-25T01:13:01.556Z,1014.27
2022-07-25T01:14:01.831Z,1014.27
2022-07-25T01:15:01.900Z,1014.29
2022-07-25T01:16:02.143Z,1014.26
2022-07-25T01:17:02.276Z,1014.27
2022-07-25T01:18:02.450Z,1014.29
2022-07-25T01:19:02.623Z,1014.30
2022-07-25T01:20:02.779Z,1014.30
2022-07-25T01:21:02.944Z,1014.29
2022-07-25T01:22:03.116Z,1014.30
2022-07-25T01:23:03.259Z,1014.30
2022-07-25T01:24:03.850Z,1014.30
2022-07-25T01:25:03.576Z,1014.27
2022-07-25T01:26:03.768Z,1014.22
2022-07-25T01:27:03.945Z,1014.22
2022-07-25T01:28:04.110Z,1014.18
2022-07-25T01:29:04.314Z,1014.23
2022-07-25T01:30:04.417Z,1014.23
2022-07-25T01:31:04.651Z,1014.22
2022-07-25T01:32:04.769Z,1014.20
2022-07-25T01:33:06.712Z,1014.18
2022-07-25T01:34:05.394Z,1014.17
2022-07-25T01:35:05.303Z,1014.19
2022-07-25T01:36:05.470Z,1014.16
2022-07-25T01:37:05.623Z,1014.14
2022-07-25T01:38:05.815Z,1014.15
2022-07-25T01:39:05.999Z,1014.15
2022-07-25T01:40:06.153Z,1014.09
2022-07-25T01:41:06.308Z,1014.10
2022-07-25T01:42:06.483Z,1014.05
2022-07-25T01:43:06.695Z,1014.06
2022-07-25T01:44:07.111Z,1014.05
2022-07-25T01:45:07.029Z,1014.05
2022-07-25T01:46:07.259Z,1014.02
2022-07-25T01:47:07.411Z,1014.04
2022-07-25T01:48:07.571Z,1014.04
2022-07-25T01:49:07.835Z,1014.04
2022-07-25T01:50:07.899Z,1013.97
2022-07-25T01:51:08.099Z,1014.00
2022-07-25T01:52:08.246Z,1013.98
2022-07-25T01:53:08.444Z,1013.99
2022-07-25T01:54:10.548Z,1013.94
2022-07-25T01:55:08.805Z,1013.99
2022-07-25T01:56:09.002Z,1013.97
2022-07-25T01:57:09.141Z,1013.96
2022-07-25T01:58:09.311Z,1013.98
2022-07-25T01:59:09.491Z,1013.97
2022-07-25T02:00:09.701Z,1014.00
2022-07-25T02:01:09.905Z,1013.99
2022-07-25T02:02:10.043Z,1013.99
2022-07-25T02:03:10.208Z,1013.97
2022-07-25T02:04:10.897Z,1013.98
2022-07-25T02:05:10.637Z,1013.95
2022-07-25T02:06:10.779Z,1013.97
2022-07-25T02:07:10.917Z,1013.93
2022-07-25T02:08:11.239Z,1013.94
2022-07-25T02:09:11.243Z,1013.89
2022-07-25T02:10:11.392Z,1013.87
2022-07-25T02:11:11.584Z,1013.86
2022-07-25T02:12:11.736Z,1013.86
2022-07-25T02:13:11.939Z,1013.82
2022-07-25T02:14:12.095Z,1013.83
2022-07-25T02:15:12.269Z,1013.83
2022-07-25T02:16:12.428Z,1013.78
2022-07-25T02:17:12.672Z,1013.78
2022-07-25T02:18:12.739Z,1013.78
2022-07-25T02:19:12.932Z,1013.79
2022-07-25T02:20:13.122Z,1013.77
2022-07-25T02:21:13.279Z,1013.76
2022-07-25T02:22:13.491Z,1013.76
2022-07-25T02:23:13.654Z,1013.76
2022-07-25T02:24:13.820Z,1013.75
2022-07-25T02:25:13.994Z,1013.73
2022-07-25T02:26:14.148Z,1013.76
2022-07-25T02:27:14.346Z,1013.78
2022-07-25T02:28:14.514Z,1013.79
2022-07-25T02:29:14.684Z,1013.74
2022-07-25T02:30:14.880Z,1013.74
2022-07-25T02:31:15.089Z,1013.72
2022-07-25T02:32:15.215Z,1013.71
2022-07-25T02:33:15.367Z,1013.69
2022-07-25T02:34:15.566Z,1013.64
2022-07-25T02:35:15.739Z,1013.66
2022-07-25T02:36:15.912Z,1013.64
2022-07-25T02:37:16.072Z,1013.60
2022-07-25T02:38:16.218Z,1013.60
2022-07-25T02:39:16.410Z,1013.58
2022-07-25T02:40:16.641Z,1013.54
2022-07-25T02:41:16.760Z,1013.52
2022-07-25T02:42:16.922Z,1013.56
2022-07-25T02:43:17.078Z,1013.55
2022-07-25T02:44:17.264Z,1013.57
2022-07-25T02:45:17.432Z,1013.55
2022-07-25T02:46:17.669Z,1013.55
2022-07-25T02:47:17.779Z,1013.53
2022-07-25T02:48:17.957Z,1013.55
2022-07-25T02:49:18.151Z,1013.56
2022-07-25T02:50:18.283Z,1013.53
2022-07-25T02:51:18.462Z,1013.53
2022-07-25T02:52:18.620Z,1013.46
2022-07-25T02:53:34.131Z,1013.46
2022-07-25T02:54:19.966Z,1013.51
2022-07-25T02:55:19.135Z,1013.46
2022-07-25T02:56:19.310Z,1013.48
2022-07-25T02:57:19.476Z,1013.47
2022-07-25T02:58:19.687Z,1013.44
2022-07-25T02:59:19.839Z,1013.44
2022-07-25T03:00:20.008Z,1013.46
2022-07-25T03:01:20.325Z,1013.44
2022-07-25T03:02:20.377Z,1013.44
2022-07-25T03:03:20.550Z,1013.38
2022-07-25T03:04:20.757Z,1013.38
2022-07-25T03:05:20.880Z,1013.40
2022-07-25T03:06:21.089Z,1013.37
2022-07-25T03:07:21.240Z,1013.37
2022-07-25T03:08:21.430Z,1013.31
2022-07-25T03:09:21.595Z,1013.33
2022-07-25T03:10:21.772Z,1013.34
2022-07-25T03:11:21.954Z,1013.25
2022-07-25T03:12:22.123Z,1013.29
2022-07-25T03:13:22.284Z,1013.29
2022-07-25T03:14:22.443Z,1013.29
2022-07-25T03:15:22.617Z,1013.28
2022-07-25T03:16:22.809Z,1013.27
2022-07-25T03:17:22.939Z,1013.26
2022-07-25T03:18:23.126Z,1013.27
2022-07-25T03:19:23.340Z,1013.26
2022-07-25T03:20:23.481Z,1013.27
2022-07-25T03:21:23.684Z,1013.24
2022-07-25T03:22:23.867Z,1013.24
2022-07-25T03:23:24.007Z,1013.26
2022-07-25T03:24:24.169Z,1013.24
2022-07-25T03:25:24.320Z,1013.23
2022-07-25T03:26:24.531Z,1013.20
2022-07-25T03:27:24.699Z,1013.21
2022-07-25T03:28:24.965Z,1013.17
2022-07-25T03:29:25.089Z,1013.19
2022-07-25T03:30:25.219Z,1013.15
2022-07-25T03:31:25.436Z,1013.12
2022-07-25T03:32:25.596Z,1013.14
2022-07-25T03:33:25.760Z,1013.14
2022-07-25T03:34:25.937Z,1013.13
2022-07-25T03:35:26.101Z,1013.16
2022-07-25T03:36:26.282Z,1013.15
2022-07-25T03:37:26.472Z,1013.10
2022-07-25T03:38:26.652Z,1013.04
2022-07-25T03:39:26.842Z,1013.06
2022-07-25T03:40:27.022Z,1013.04
2022-07-25T03:41:27.842Z,1013.04
2022-07-25T03:42:30.021Z,1013.04
2022-07-25T03:43:27.519Z,1013.08
2022-07-25T03:44:27.693Z,1013.04
2022-07-25T03:45:27.954Z,1013.04
2022-07-25T03:46:28.127Z,1013.05
2022-07-25T03:47:28.237Z,1013.03
2022-07-25T03:48:28.405Z,1013.03
2022-07-25T03:49:28.623Z,1013.00
2022-07-25T03:50:28.750Z,1012.99
2022-07-25T03:51:28.910Z,1012.98
2022-07-25T03:52:29.087Z,1012.98
2022-07-25T03:53:29.291Z,1012.98
2022-07-25T03:54:29.440Z,1012.96
2022-07-25T03:55:29.583Z,1012.99
2022-07-25T03:56:29.830Z,1012.99
2022-07-25T03:57:29.978Z,1013.00
2022-07-25T03:58:30.100Z,1012.98
2022-07-25T03:59:30.301Z,1012.98
2022-07-25T04:00:30.445Z,1012.96
2022-07-25T04:01:30.662Z,1012.96
2022-07-25T04:02:30.861Z,1012.93
2022-07-25T04:03:30.973Z,1012.95
2022-07-25T04:04:31.130Z,1012.93
2022-07-25T04:05:31.318Z,1012.98
2022-07-25T04:06:31.481Z,1012.95
2022-07-25T04:07:31.666Z,1012.94
2022-07-25T04:08:31.924Z,1012.96
2022-07-25T04:09:33.411Z,1012.91
2022-07-25T04:10:32.205Z,1012.91
2022-07-25T04:11:32.386Z,1012.88
2022-07-25T04:12:32.577Z,1012.85
2022-07-25T04:13:32.737Z,1012.87
2022-07-25T04:14:32.918Z,1012.87
2022-07-25T04:15:33.106Z,1012.86
2022-07-25T04:16:33.373Z,1012.84
2022-07-25T04:17:33.466Z,1012.87
2022-07-25T04:18:34.234Z,1012.87
2022-07-25T04:19:33.802Z,1012.84
2022-07-25T04:20:33.981Z,1012.86
2022-07-25T04:21:34.176Z,1012.88
2022-07-25T04:22:34.350Z,1012.87
2022-07-25T04:23:34.532Z,1012.85
2022-07-25T04:24:34.710Z,1012.84
2022-07-25T04:25:34.882Z,1012.84
2022-07-25T04:26:35.074Z,1012.82
2022-07-25T04:27:35.230Z,1012.80
2022-07-25T04:28:35.401Z,1012.85
2022-07-25T04:29:35.605Z,1012.85
2022-07-25T04:30:35.771Z,1012.86
2022-07-25T04:31:36.007Z,1012.82
2022-07-25T04:32:36.141Z,1012.82
2022-07-25T04:33:36.288Z,1012.79
2022-07-25T04:34:36.470Z,1012.75
2022-07-25T04:35:36.649Z,1012.71
2022-07-25T04:36:36.870Z,1012.68
2022-07-25T04:37:37.018Z,1012.69
2022-07-25T04:38:37.202Z,1012.66
2022-07-25T04:39:37.356Z,1012.66
2022-07-25T04:40:37.534Z,1012.64
2022-07-25T04:41:37.717Z,1012.63
2022-07-25T04:42:37.883Z,1012.63
2022-07-25T04:43:38.027Z,1012.60
2022-07-25T04:44:38.213Z,1012.59
2022-07-25T04:45:38.466Z,1012.55
2022-07-25T04:46:38.571Z,1012.52
2022-07-25T04:47:38.720Z,1012.50
2022-07-25T04:48:38.941Z,1012.51
2022-07-25T04:49:39.053Z,1012.44
2022-07-25T04:50:39.261Z,1012.44
2022-07-25T04:51:39.449Z,1012.44
2022-07-25T04:52:39.609Z,1012.39
2022-07-25T04:53:39.790Z,1012.40
2022-07-25T04:54:39.968Z,1012.38
2022-07-25T04:55:40.149Z,1012.36
2022-07-25T04:56:40.347Z,1012.30
2022-07-25T04:57:40.511Z,1012.35
2022-07-25T04:58:40.664Z,1012.28
2022-07-25T04:59:40.877Z,1012.27
2022-07-25T05:00:41.069Z,1012.25
2022-07-25T05:01:41.184Z,1012.24
2022-07-25T05:02:41.380Z,1012.26
2022-07-25T05:03:41.491Z,1012.23
2022-07-25T05:04:45.452Z,1012.26
2022-07-25T05:05:41.831Z,1012.25
2022-07-25T05:06:42.030Z,1012.24
2022-07-25T05:07:42.196Z,1012.21
2022-07-25T05:08:42.361Z,1012.23
2022-07-25T05:09:42.540Z,1012.19
2022-07-25T05:10:42.738Z,1012.19
2022-07-25T05:11:47.449Z,1012.17
2022-07-25T05:12:44.047Z,1012.16
2022-07-25T05:13:43.204Z,1012.14
2022-07-25T05:14:43.390Z,1012.12
2022-07-25T05:15:43.539Z,1012.16
2022-07-25T05:16:43.881Z,1012.16
2022-07-25T05:17:43.902Z,1012.14
2022-07-25T05:18:44.059Z,1012.06
2022-07-25T05:19:44.244Z,1012.13
2022-07-25T05:20:44.414Z,1012.07
2022-07-25T05:21:44.624Z,1012.07
2022-07-25T05:22:44.783Z,1012.06
2022-07-25T05:23:44.965Z,1012.08
2022-07-25T05:24:45.146Z,1012.07
2022-07-25T05:25:45.317Z,1012.08
2022-07-25T05:26:45.519Z,1012.04
2022-07-25T05:27:45.683Z,1011.99
2022-07-25T05:28:45.866Z,1012.05
2022-07-25T05:29:46.025Z,1012.02
2022-07-25T05:30:46.222Z,1011.97
2022-07-25T05:31:46.459Z,1012.01
2022-07-25T05:32:46.530Z,1012.01
2022-07-25T05:33:46.697Z,1012.02
2022-07-25T05:34:46.898Z,1012.02
2022-07-25T05:35:47.039Z,1012.03
2022-07-25T05:36:47.567Z,1012.03
2022-07-25T05:37:47.399Z,1012.00
2022-07-25T05:38:47.556Z,1012.02
2022-07-25T05:39:47.738Z,1012.00
2022-07-25T05:40:47.920Z,1012.02
2022-07-25T05:41:48.106Z,1012.02
2022-07-25T05:42:48.299Z,1011.98
2022-07-25T05:43:48.469Z,1011.96
2022-07-25T05:44:48.635Z,1011.90
2022-07-25T05:45:48.836Z,1011.91
2022-07-25T05:46:49.076Z,1011.93
2022-07-25T05:47:49.220Z,1011.86
2022-07-25T05:48:49.408Z,1011.89
2022-07-25T05:49:49.543Z,1011.83
2022-07-25T05:50:49.742Z,1011.84
2022-07-25T05:51:49.905Z,1011.84
2022-07-25T05:52:50.107Z,1011.82
2022-07-25T05:53:50.256Z,1011.79
2022-07-25T05:54:50.438Z,1011.84
2022-07-25T05:55:50.616Z,1011.80
2022-07-25T05:56:50.798Z,1011.84
2022-07-25T05:57:50.993Z,1011.79
2022-07-25T05:58:51.156Z,1011.82
2022-07-25T05:59:51.338Z,1011.80
2022-07-25T06:00:51.524Z,1011.79
2022-07-25T06:01:51.758Z,1011.80
2022-07-25T06:02:52.108Z,1011.81
2022-07-25T06:03:52.077Z,1011.76
2022-07-25T06:04:52.281Z,1011.73
2022-07-25T06:05:52.459Z,1011.76
2022-07-25T06:06:52.647Z,1011.72
2022-07-25T06:07:52.809Z,1011.73
2022-07-25T06:08:52.976Z,1011.70
2022-07-25T06:09:53.156Z,1011.72
2022-07-25T06:10:53.310Z,1011.68
2022-07-25T06:12:00.398Z,1011.65
2022-07-25T06:12:54.672Z,1011.64
2022-07-25T06:13:53.842Z,1011.66
2022-07-25T06:14:54.051Z,1011.66
2022-07-25T06:15:54.227Z,1011.63
2022-07-25T06:16:54.377Z,1011.65
2022-07-25T06:17:54.553Z,1011.62
2022-07-25T06:18:54.725Z,1011.61
2022-07-25T06:19:54.889Z,1011.56
2022-07-25T06:20:55.084Z,1011.55
2022-07-25T06:21:55.247Z,1011.55
2022-07-25T06:22:55.442Z,1011.47
2022-07-25T06:23:55.573Z,1011.50
2022-07-25T06:24:55.760Z,1011.51
2022-07-25T06:25:55.989Z,1011.46
2022-07-25T06:26:56.115Z,1011.44
2022-07-25T06:27:56.330Z,1011.43
2022-07-25T06:28:56.462Z,1011.44
2022-07-25T06:29:56.648Z,1011.44
2022-07-25T06:30:56.839Z,1011.40
2022-07-25T06:31:57.115Z,1011.41
2022-07-25T06:32:57.230Z,1011.41
2022-07-25T06:33:57.381Z,1011.40
2022-07-25T06:34:57.563Z,1011.41
2022-07-25T06:35:57.753Z,1011.37
2022-07-25T06:36:57.902Z,1011.41
2022-07-25T06:37:58.102Z,1011.40
2022-07-25T06:38:58.274Z,1011.37
2022-07-25T06:39:58.473Z,1011.37
2022-07-25T06:40:58.647Z,1011.35
2022-07-25T06:41:58.841Z,1011.35
2022-07-25T06:42:59.037Z,1011.37
2022-07-25T06:43:59.187Z,1011.29
2022-07-25T06:44:59.365Z,1011.32
2022-07-25T06:45:59.548Z,1011.28
2022-07-25T06:46:59.801Z,1011.25
2022-07-25T06:47:59.950Z,1011.27
2022-07-25T06:49:00.150Z,1011.22
2022-07-25T06:50:00.281Z,1011.24
2022-07-25T06:51:00.449Z,1011.20
2022-07-25T06:52:00.610Z,1011.21
2022-07-25T06:53:00.783Z,1011.20
2022-07-25T06:54:00.941Z,1011.19
2022-07-25T06:55:01.086Z,1011.20
2022-07-25T06:56:01.289Z,1011.21
2022-07-25T06:57:01.432Z,1011.16
2022-07-25T06:58:01.609Z,1011.17
2022-07-25T06:59:01.742Z,1011.18
2022-07-25T07:00:01.927Z,1011.14
2022-07-25T07:01:02.178Z,1011.16
2022-07-25T07:02:02.300Z,1011.16
2022-07-25T07:03:02.606Z,1011.14
2022-07-25T07:04:02.850Z,1011.11
2022-07-25T07:05:02.850Z,1011.14
2022-07-25T07:06:03.045Z,1011.08
2022-07-25T07:07:03.205Z,1011.10
2022-07-25T07:08:03.365Z,1011.04
2022-07-25T07:09:03.521Z,1010.97
2022-07-25T07:10:03.666Z,1010.95
2022-07-25T07:11:03.856Z,1010.97
2022-07-25T07:12:04.065Z,1010.95
2022-07-25T07:13:04.207Z,1010.99
2022-07-25T07:14:04.756Z,1010.99
2022-07-25T07:15:04.576Z,1010.94
2022-07-25T07:16:04.807Z,1010.95
2022-07-25T07:17:04.958Z,1010.97
2022-07-25T07:18:05.243Z,1010.93
2022-07-25T07:19:05.657Z,1010.94
2022-07-25T07:20:05.500Z,1010.92
2022-07-25T07:21:05.700Z,1010.92
2022-07-25T07:22:05.859Z,1010.92
2022-07-25T07:23:06.052Z,1010.90
2022-07-25T07:24:22.109Z,1010.88
2022-07-25T07:25:07.381Z,1010.86
2022-07-25T07:26:06.543Z,1010.83
2022-07-25T07:27:06.727Z,1010.88
2022-07-25T07:28:06.915Z,1010.80
2022-07-25T07:29:07.372Z,1010.81
2022-07-25T07:30:07.260Z,1010.78
2022-07-25T07:31:16.993Z,1010.80
2022-07-25T07:32:08.768Z,1010.77
2022-07-25T07:33:07.750Z,1010.80
2022-07-25T07:34:07.934Z,1010.81
2022-07-25T07:35:08.076Z,1010.81
2022-07-25T07:36:08.264Z,1010.75
2022-07-25T07:37:08.460Z,1010.73
2022-07-25T07:38:08.625Z,1010.75
2022-07-25T07:39:09.284Z,1010.74
2022-07-25T07:40:08.956Z,1010.75
2022-07-25T07:41:10.129Z,1010.74
2022-07-25T07:42:09.314Z,1010.72
2022-07-25T07:43:09.497Z,1010.73
2022-07-25T07:44:09.710Z,1010.71
2022-07-25T07:45:09.846Z,1010.73
2022-07-25T07:46:10.076Z,1010.73
2022-07-25T07:47:14.307Z,1010.68
2022-07-25T07:48:10.391Z,1010.68
2022-07-25T07:49:11.172Z,1010.65
2022-07-25T07:50:10.743Z,1010.64
2022-07-25T07:51:10.890Z,1010.63
2022-07-25T07:52:11.090Z,1010.64
2022-07-25T07:53:11.251Z,1010.60
2022-07-25T07:54:11.451Z,1010.61
2022-07-25T07:55:11.593Z,1010.57
2022-07-25T07:56:11.785Z,1010.61
2022-07-25T07:57:11.962Z,1010.58
2022-07-25T07:58:12.124Z,1010.62
2022-07-25T07:59:12.325Z,1010.58
2022-07-25T08:00:16.518Z,1010.54
2022-07-25T08:01:12.686Z,1010.56
2022-07-25T08:02:12.904Z,1010.55
2022-07-25T08:03:13.149Z,1010.59
2022-07-25T08:04:13.225Z,1010.56
2022-07-25T08:05:13.368Z,1010.55
2022-07-25T08:06:13.538Z,1010.52
2022-07-25T08:07:13.716Z,1010.49
2022-07-25T08:08:13.929Z,1010.50
2022-07-25T08:09:14.077Z,1010.49
2022-07-25T08:10:14.251Z,1010.49
2022-07-25T08:11:14.437Z,1010.52
2022-07-25T08:12:14.643Z,1010.46
2022-07-25T08:13:14.779Z,1010.46
2022-07-25T08:14:14.979Z,1010.45
2022-07-25T08:15:15.130Z,1010.36
2022-07-25T08:16:15.358Z,1010.39
2022-07-25T08:17:15.490Z,1010.38
2022-07-25T08:18:17.394Z,1010.35
2022-07-25T08:19:15.892Z,1010.34
2022-07-25T08:20:36.724Z,1010.33
2022-07-25T08:21:17.193Z,1010.33
2022-07-25T08:22:16.358Z,1010.35
2022-07-25T08:23:16.542Z,1010.37
2022-07-25T08:24:16.753Z,1010.38
2022-07-25T08:25:16.905Z,1010.35
2022-07-25T08:26:17.064Z,1010.36
2022-07-25T08:27:17.249Z,1010.34
2022-07-25T08:28:17.433Z,1010.29
2022-07-25T08:29:19.975Z,1010.29
2022-07-25T08:30:17.785Z,1010.31
2022-07-25T08:31:18.026Z,1010.28
2022-07-25T08:32:18.127Z,1010.25
2022-07-25T08:33:18.307Z,1010.27
2022-07-25T08:34:18.490Z,1010.28
2022-07-25T08:35:18.628Z,1010.28
2022-07-25T08:36:18.819Z,1010.26
2022-07-25T08:37:19.009Z,1010.21
2022-07-25T08:38:19.209Z,1010.27
2022-07-25T08:39:19.361Z,1010.19
2022-07-25T08:40:19.540Z,1010.24
2022-07-25T08:41:19.730Z,1010.21
2022-07-25T08:42:20.892Z,1010.24
2022-07-25T08:43:20.072Z,1010.17
2022-07-25T08:44:20.227Z,1010.15
2022-07-25T08:45:20.374Z,1010.17
2022-07-25T08:46:20.589Z,1010.11
2022-07-25T08:47:20.748Z,1010.10
2022-07-25T08:48:20.902Z,1010.13
2022-07-25T08:49:21.068Z,1010.11
2022-07-25T08:50:21.209Z,1010.09
2022-07-25T08:51:21.397Z,1010.05
2022-07-25T08:52:21.589Z,1010.05
2022-07-25T08:53:37.154Z,1010.09
2022-07-25T08:54:22.970Z,1010.09
2022-07-25T08:55:22.124Z,1010.02
2022-07-25T08:56:22.276Z,1010.06
2022-07-25T08:57:22.466Z,1010.06
2022-07-25T08:58:22.703Z,1010.11
2022-07-25T08:59:22.800Z,1010.06
2022-07-25T09:00:22.979Z,1010.05
2022-07-25T09:01:23.207Z,1010.03
2022-07-25T09:02:23.444Z,1009.98
2022-07-25T09:03:23.604Z,1009.95
2022-07-25T09:04:23.742Z,1009.97
2022-07-25T09:05:23.905Z,1009.93
2022-07-25T09:06:24.041Z,1009.93
2022-07-25T09:07:24.230Z,1009.90
2022-07-25T09:08:24.431Z,1009.87
2022-07-25T09:09:24.622Z,1009.92
2022-07-25T09:10:24.794Z,1009.91
2022-07-25T09:11:24.987Z,1009.83
2022-07-25T09:12:26.166Z,1009.84
2022-07-25T09:13:25.372Z,1009.83
2022-07-25T09:14:25.520Z,1009.85
2022-07-25T09:15:25.682Z,1009.73
2022-07-25T09:16:26.012Z,1009.79
2022-07-25T09:17:26.069Z,1009.74
2022-07-25T09:18:26.233Z,1009.70
2022-07-25T09:19:26.424Z,1009.69
2022-07-25T09:20:26.577Z,1009.71
2022-07-25T09:21:26.754Z,1009.68
2022-07-25T09:22:26.935Z,1009.67
2022-07-25T09:23:27.155Z,1009.65
2022-07-25T09:24:27.295Z,1009.64
2022-07-25T09:25:27.475Z,1009.68
2022-07-25T09:26:27.667Z,1009.65
2022-07-25T09:27:27.837Z,1009.66
2022-07-25T09:28:28.039Z,1009.57
2022-07-25T09:29:28.170Z,1009.59
2022-07-25T09:30:28.345Z,1009.57
2022-07-25T09:31:28.582Z,1009.56
2022-07-25T09:32:28.730Z,1009.46
2022-07-25T09:33:28.852Z,1009.45
2022-07-25T09:34:29.030Z,1009.45
2022-07-25T09:35:29.220Z,1009.42
2022-07-25T09:36:29.415Z,1009.43
2022-07-25T09:37:29.602Z,1009.42
2022-07-25T09:38:29.772Z,1009.37
2022-07-25T09:39:29.954Z,1009.40
2022-07-25T09:40:30.143Z,1009.33
2022-07-25T09:41:30.342Z,1009.34
2022-07-25T09:42:30.488Z,1009.34
2022-07-25T09:43:30.655Z,1009.28
2022-07-25T09:44:30.827Z,1009.33
2022-07-25T09:45:31.671Z,1009.28
2022-07-25T09:46:31.289Z,1009.29
2022-07-25T09:47:31.369Z,1009.23
2022-07-25T09:48:31.579Z,1009.26
2022-07-25T09:49:31.707Z,1009.20
2022-07-25T09:50:31.918Z,1009.20
2022-07-25T09:51:32.057Z,1009.17
2022-07-25T09:52:32.248Z,1009.19
2022-07-25T09:53:32.428Z,1009.16
2022-07-25T09:54:32.619Z,1009.15
2022-07-25T09:55:32.808Z,1009.13
2022-07-25T09:56:32.978Z,1009.17
2022-07-25T09:57:33.162Z,1009.14
2022-07-25T09:58:33.311Z,1009.19
2022-07-25T09:59:33.497Z,1009.08
2022-07-25T10:00:33.734Z,1009.13
2022-07-25T10:01:33.954Z,1009.10
2022-07-25T10:02:34.084Z,1009.11
2022-07-25T10:03:34.242Z,1009.02
2022-07-25T10:04:34.422Z,1009.02
2022-07-25T10:05:34.633Z,1009.03
2022-07-25T10:06:34.773Z,1009.09
2022-07-25T10:07:34.954Z,1009.05
2022-07-25T10:08:35.137Z,1009.03
2022-07-25T10:09:35.321Z,1008.94
2022-07-25T10:10:35.526Z,1008.98
2022-07-25T10:11:35.666Z,1008.97
2022-07-25T10:12:35.903Z,1008.94
2022-07-25T10:13:36.033Z,1008.90
2022-07-25T10:14:36.210Z,1008.91
2022-07-25T10:15:36.407Z,1008.86
2022-07-25T10:16:36.627Z,1008.82
2022-07-25T10:17:36.727Z,1008.82
2022-07-25T10:18:36.912Z,1008.77
2022-07-25T10:19:37.092Z,1008.73
2022-07-25T10:20:37.294Z,1008.78
2022-07-25T10:21:37.436Z,1008.75
2022-07-25T10:22:55.234Z,1008.75
2022-07-25T10:23:38.861Z,1008.74
2022-07-25T10:24:37.998Z,1008.72
2022-07-25T10:25:38.164Z,1008.67
2022-07-25T10:26:38.340Z,1008.63
2022-07-25T10:27:38.514Z,1008.69
2022-07-25T10:28:38.692Z,1008.61
2022-07-25T10:29:38.868Z,1008.57
2022-07-25T10:30:39.072Z,1008.60
2022-07-25T10:31:39.171Z,1008.63
2022-07-25T10:32:39.366Z,1008.53
2022-07-25T10:33:39.543Z,1008.50
2022-07-25T10:34:39.744Z,1008.52
2022-07-25T10:35:39.934Z,1008.49
2022-07-25T10:36:40.077Z,1008.51
2022-07-25T10:37:40.259Z,1008.49
2022-07-25T10:38:40.446Z,1008.51
2022-07-25T10:39:40.637Z,1008.45
2022-07-25T10:40:40.848Z,1008.50
2022-07-25T10:41:41.000Z,1008.44
2022-07-25T10:42:41.187Z,1008.47
2022-07-25T10:43:43.659Z,1008.40
2022-07-25T10:44:42.529Z,1008.49
2022-07-25T10:45:41.777Z,1008.40
2022-07-25T10:46:41.955Z,1008.38
2022-07-25T10:47:42.063Z,1008.41
2022-07-25T10:48:42.346Z,1008.35
2022-07-25T10:49:55.134Z,1008.37
2022-07-25T10:50:55.402Z,1008.37
2022-07-25T10:51:43.800Z,1008.35
2022-07-25T10:52:42.991Z,1008.24
2022-07-25T10:53:43.117Z,1008.18
2022-07-25T10:54:43.282Z,1008.16
2022-07-25T10:55:43.474Z,1008.21
2022-07-25T10:56:43.672Z,1008.13
2022-07-25T10:58:01.278Z,1008.10
2022-07-25T10:58:45.004Z,1008.07
2022-07-25T10:59:44.185Z,1008.11
2022-07-25T11:00:44.365Z,1008.10
2022-07-25T11:01:44.595Z,1008.12
2022-07-25T11:02:44.766Z,1008.07
2022-07-25T11:03:44.898Z,1008.09
2022-07-25T11:04:45.084Z,1008.07
2022-07-25T11:05:45.275Z,1008.06
2022-07-25T11:06:45.467Z,1008.06
2022-07-25T11:08:04.462Z,1007.98
2022-07-25T11:08:46.799Z,1007.98
2022-07-25T11:09:45.987Z,1007.99
2022-07-25T11:10:46.169Z,1007.98
2022-07-25T11:11:46.347Z,1007.98
2022-07-25T11:12:46.522Z,1008.03
2022-07-25T11:13:46.679Z,1007.96
2022-07-25T11:14:46.883Z,1007.88
2022-07-25T11:15:47.053Z,1007.93
2022-07-25T11:16:47.346Z,1007.90
2022-07-25T11:17:47.440Z,1007.94
2022-07-25T11:18:47.613Z,1007.95
2022-07-25T11:19:47.817Z,1007.92
2022-07-25T11:20:47.974Z,1007.90
2022-07-25T11:21:48.145Z,1007.85
2022-07-25T11:22:48.325Z,1007.82
2022-07-25T11:23:48.505Z,1007.73
2022-07-25T11:24:48.685Z,1007.80
2022-07-25T11:25:48.816Z,1007.70
2022-07-25T11:26:49.006Z,1007.83
2022-07-25T11:27:49.201Z,1007.73
2022-07-25T11:28:49.347Z,1007.69
2022-07-25T11:29:49.558Z,1007.69
2022-07-25T11:30:49.696Z,1007.66
2022-07-25T11:31:49.899Z,1007.76
2022-07-25T11:32:50.055Z,1007.83
2022-07-25T11:33:50.226Z,1007.86
2022-07-25T11:34:50.521Z,1007.79
2022-07-25T11:35:50.605Z,1007.75
2022-07-25T11:36:50.752Z,1007.66
2022-07-25T11:37:50.899Z,1007.63
2022-07-25T11:38:51.082Z,1007.61
2022-07-25T11:39:51.497Z,1007.60
2022-07-25T11:40:51.455Z,1007.56
2022-07-25T11:41:51.709Z,1007.61
2022-07-25T11:42:51.807Z,1007.54
2022-07-25T11:43:51.996Z,1007.59
2022-07-25T11:44:52.152Z,1007.61
2022-07-25T11:45:52.368Z,1007.59
2022-07-25T11:46:52.530Z,1007.57
2022-07-25T11:47:52.663Z,1007.64
2022-07-25T11:48:52.841Z,1007.59
2022-07-25T11:49:53.010Z,1007.59
2022-07-25T11:50:53.195Z,1007.60
2022-07-25T11:51:53.394Z,1007.56
2022-07-25T11:52:53.546Z,1007.52
2022-07-25T11:53:53.743Z,1007.46
2022-07-25T11:54:53.886Z,1007.41
2022-07-25T11:55:54.078Z,1007.42
2022-07-25T11:56:54.284Z,1007.31
2022-07-25T11:57:54.438Z,1007.22
2022-07-25T11:58:54.589Z,1007.30
2022-07-25T11:59:54.778Z,1007.23
2022-07-25T12:00:54.959Z,1007.21
2022-07-25T12:01:55.199Z,1007.26
2022-07-25T12:02:55.452Z,1007.18
2022-07-25T12:03:55.602Z,1007.25
2022-07-25T12:04:55.682Z,1007.22
2022-07-25T12:05:55.865Z,1007.22
2022-07-25T12:06:56.044Z,1007.22
2022-07-25T12:07:56.187Z,1007.20